createdAt,value
2022-12-28T00:00:13.317Z,101184.23
2022-12-28T00:03:02.413Z,101179.93
2022-12-28T00:05:31.603Z,101177.34
2022-12-28T00:08:00.956Z,101164.42
2022-12-28T00:11:08.663Z,101168.72
2022-12-28T00:13:19.217Z,101175.56
2022-12-28T00:15:48.300Z,101174.70
2022-12-28T00:18:17.205Z,101172.95
2022-12-28T00:20:55.257Z,101172.13
2022-12-28T00:23:24.256Z,101172.05
2022-12-28T00:25:53.718Z,101172.02
2022-12-28T00:28:23.258Z,101174.60
2022-12-28T00:30:52.455Z,101174.60
2022-12-28T00:33:21.518Z,101171.09
2022-12-28T00:35:54.527Z,101177.15
2022-12-28T00:38:24.085Z,101176.22
2022-12-28T00:40:53.043Z,101182.20
2022-12-28T00:43:21.932Z,101193.34
2022-12-28T00:45:50.933Z,101181.23
2022-12-28T00:48:20.313Z,101193.20
2022-12-28T00:50:49.393Z,101188.88
2022-12-28T00:53:18.301Z,101189.70
2022-12-28T00:55:47.538Z,101203.41
2022-12-28T00:58:16.415Z,101197.40
2022-12-28T01:00:45.618Z,101195.64
2022-12-28T01:03:14.797Z,101200.80
2022-12-28T01:05:43.692Z,101199.91
2022-12-28T01:08:12.575Z,101194.75
2022-12-28T01:10:42.116Z,101196.47
2022-12-28T01:13:12.210Z,101192.95
2022-12-28T01:15:41.059Z,101194.67
2022-12-28T01:18:09.906Z,101190.34
2022-12-28T01:20:41.608Z,101186.84
2022-12-28T01:23:11.275Z,101180.79
2022-12-28T01:25:40.312Z,101190.20
2022-12-28T01:28:09.184Z,101187.52
2022-12-28T01:30:38.969Z,101185.73
2022-12-28T01:33:08.153Z,101188.31
2022-12-28T01:35:38.017Z,101178.82
2022-12-28T01:38:06.944Z,101176.24
2022-12-28T01:40:35.925Z,101177.93
2022-12-28T01:43:13.170Z,101172.77
2022-12-28T01:45:46.786Z,101165.00
2022-12-28T01:48:21.204Z,101174.42
2022-12-28T01:50:51.251Z,101169.23
2022-12-28T01:53:21.364Z,101163.14
2022-12-28T01:55:50.404Z,101177.75
2022-12-28T01:58:25.130Z,101174.23
2022-12-28T02:00:54.943Z,101174.14
2022-12-28T02:03:27.806Z,101176.67
2022-12-28T02:06:00.391Z,101180.04
2022-12-28T02:08:38.680Z,101180.86
2022-12-28T02:11:10.674Z,101174.70
2022-12-28T02:13:40.386Z,101165.25
2022-12-28T02:16:11.295Z,101158.28
2022-12-28T02:18:42.633Z,101163.36
2022-12-28T02:21:22.391Z,101160.67
2022-12-28T02:24:20.350Z,101159.70
2022-12-28T02:26:56.345Z,101163.77
2022-12-28T02:29:58.237Z,101152.39
2022-12-28T02:32:44.015Z,101159.00
2022-12-28T02:35:19.658Z,101159.59
2022-12-28T02:37:55.972Z,101157.76
2022-12-28T02:40:30.326Z,101155.78
2022-12-28T02:43:02.195Z,101159.02
2022-12-28T02:45:54.642Z,101153.72
2022-12-28T02:48:42.694Z,101144.04
2022-12-28T02:51:44.658Z,101153.24
2022-12-28T02:54:54.416Z,101145.29
2022-12-28T02:57:40.552Z,101153.62
2022-12-28T03:00:12.819Z,101150.77
2022-12-28T03:02:56.101Z,101151.50
2022-12-28T03:05:57.917Z,101155.59
2022-12-28T03:08:36.557Z,101156.20
2022-12-28T03:11:09.433Z,101153.46
2022-12-28T03:13:46.601Z,101160.16
2022-12-28T03:16:25.659Z,101155.74
2022-12-28T03:19:18.781Z,101154.68
2022-12-28T03:22:07.469Z,101154.47
2022-12-28T03:24:57.998Z,101151.72
2022-12-28T03:27:47.632Z,101152.41
2022-12-28T03:30:39.109Z,101154.81
2022-12-28T03:33:11.569Z,101152.20
2022-12-28T03:35:46.237Z,101147.88
2022-12-28T03:38:26.816Z,101148.64
2022-12-28T03:41:03.379Z,101138.23
2022-12-28T03:43:41.959Z,101136.34
2022-12-28T03:46:18.518Z,101131.08
2022-12-28T03:48:49.219Z,101128.42
2022-12-28T03:51:22.729Z,101128.30
2022-12-28T03:53:52.801Z,101125.59
2022-12-28T03:56:24.828Z,101110.08
2022-12-28T03:58:57.483Z,101109.95
2022-12-28T04:01:30.908Z,101093.55
2022-12-28T04:04:00.270Z,101081.39
2022-12-28T04:06:29.323Z,101079.59
2022-12-28T04:08:58.608Z,101087.17
2022-12-28T04:11:28.934Z,101090.42
2022-12-28T04:14:01.212Z,101082.55
2022-12-28T04:16:34.985Z,101083.31
2022-12-28T04:19:04.778Z,101084.80
2022-12-28T04:21:33.700Z,101087.27
2022-12-28T04:24:03.377Z,101088.00
2022-12-28T04:26:33.220Z,101087.02
2022-12-28T04:29:02.707Z,101078.31
2022-12-28T04:31:47.682Z,101085.08
2022-12-28T04:34:19.953Z,101081.47
2022-12-28T04:36:56.002Z,101077.91
2022-12-28T04:39:24.889Z,101093.98
2022-12-28T04:41:53.886Z,101086.96
2022-12-28T04:44:22.950Z,101089.42
2022-12-28T04:46:52.097Z,101094.42
2022-12-28T04:49:21.313Z,101098.66
2022-12-28T04:51:50.236Z,101088.30
2022-12-28T04:54:19.304Z,101089.97
2022-12-28T04:56:48.374Z,101095.91
2022-12-28T04:59:17.343Z,101086.41
2022-12-28T05:01:46.385Z,101087.22
2022-12-28T05:04:15.399Z,101093.11
2022-12-28T05:06:44.416Z,101089.64
2022-12-28T05:09:13.423Z,101081.08
2022-12-28T05:11:42.316Z,101084.41
2022-12-28T05:14:11.223Z,101069.73
2022-12-28T05:16:40.153Z,101074.88
2022-12-28T05:19:09.142Z,101075.58
2022-12-28T05:21:38.230Z,101080.63
2022-12-28T05:24:08.507Z,101074.58
2022-12-28T05:26:37.336Z,101073.63
2022-12-28T05:29:06.208Z,101076.06
2022-12-28T05:31:35.315Z,101074.25
2022-12-28T05:34:04.909Z,101083.56
2022-12-28T05:36:37.520Z,101085.18
2022-12-28T05:39:06.762Z,101074.78
2022-12-28T05:41:35.599Z,101064.47
2022-12-28T05:44:05.025Z,101066.09
2022-12-28T05:46:35.045Z,101062.52
2022-12-28T05:49:07.662Z,101065.03
2022-12-28T05:51:39.542Z,101064.95
2022-12-28T05:54:08.833Z,101051.94
2022-12-28T05:56:37.835Z,101051.07
2022-12-28T05:59:07.511Z,101049.26
2022-12-28T06:01:39.357Z,101057.67
2022-12-28T06:04:13.522Z,101063.61
2022-12-28T06:06:42.716Z,101063.55
2022-12-28T06:09:11.864Z,101054.91
2022-12-28T06:11:41.266Z,101045.47
2022-12-28T06:14:10.371Z,101048.84
2022-12-28T06:16:41.559Z,101053.11
2022-12-28T06:19:14.329Z,101052.21
2022-12-28T06:21:43.679Z,101049.59
2022-12-28T06:24:13.605Z,101051.34
2022-12-28T06:26:42.669Z,101047.08
2022-12-28T06:29:11.677Z,101041.15
2022-12-28T06:31:44.778Z,101046.36
2022-12-28T06:34:14.133Z,101047.22
2022-12-28T06:36:45.295Z,101041.23
2022-12-28T06:39:15.176Z,101048.98
2022-12-28T06:41:44.032Z,101042.98
2022-12-28T06:44:13.891Z,101045.55
2022-12-28T06:46:42.883Z,101038.67
2022-12-28T06:49:11.960Z,101038.67
2022-12-28T06:51:41.473Z,101039.48
2022-12-28T06:54:11.130Z,101036.97
2022-12-28T06:56:40.254Z,101023.29
2022-12-28T06:59:09.271Z,101026.80
2022-12-28T07:01:40.567Z,101031.09
2022-12-28T07:04:10.373Z,101027.72
2022-12-28T07:06:41.712Z,101032.92
2022-12-28T07:09:13.158Z,101015.08
2022-12-28T07:11:42.144Z,101018.69
2022-12-28T07:14:11.276Z,101007.62
2022-12-28T07:19:09.326Z,101003.54
2022-12-28T07:21:40.264Z,101016.63
2022-12-28T07:24:10.113Z,101004.05
2022-12-28T07:26:39.388Z,100994.87
2022-12-28T07:29:09.236Z,100997.66
2022-12-28T07:31:45.222Z,101000.59
2022-12-28T07:34:15.473Z,101001.67
2022-12-28T07:36:44.327Z,100997.71
2022-12-28T07:39:14.073Z,100991.09
2022-12-28T07:41:43.000Z,100999.02
2022-12-28T07:44:11.932Z,100997.52
2022-12-28T07:46:40.836Z,100989.14
2022-12-28T07:49:09.836Z,100997.95
2022-12-28T07:51:39.797Z,101001.59
2022-12-28T07:54:08.889Z,100994.92
2022-12-28T07:59:06.844Z,100998.73
2022-12-28T08:01:37.160Z,101004.97
2022-12-28T08:04:08.527Z,101000.82
2022-12-28T08:06:40.152Z,101003.55
2022-12-28T08:09:10.799Z,101005.48
2022-12-28T08:11:41.745Z,100993.56
2022-12-28T08:14:12.074Z,100983.34
2022-12-28T08:16:43.392Z,100981.70
2022-12-28T08:19:13.813Z,100973.30
2022-12-28T08:21:44.821Z,100976.97
2022-12-28T08:24:16.560Z,100978.06
2022-12-28T08:26:46.363Z,100986.87
2022-12-28T08:29:18.756Z,100977.68
2022-12-28T08:31:48.363Z,100988.28
2022-12-28T08:34:19.447Z,100973.09
2022-12-28T08:36:48.577Z,100981.08
2022-12-28T08:39:17.488Z,100988.34
2022-12-28T08:41:46.912Z,100989.66
2022-12-28T08:44:15.866Z,100979.73
2022-12-28T08:46:45.018Z,100972.41
2022-12-28T08:49:14.277Z,100977.38
2022-12-28T08:51:43.303Z,100967.42
2022-12-28T08:54:13.748Z,100973.84
2022-12-28T08:56:44.210Z,100966.52
2022-12-28T08:59:15.056Z,100965.23
2022-12-28T09:01:45.068Z,100962.91
2022-12-28T09:04:18.015Z,100969.23
2022-12-28T09:06:47.417Z,100971.23
2022-12-28T09:09:18.667Z,100963.04
2022-12-28T09:11:48.469Z,100967.61
2022-12-28T09:14:23.298Z,100960.97
2022-12-28T09:16:53.837Z,100965.53
2022-12-28T09:19:23.242Z,100953.69
2022-12-28T09:21:52.803Z,100964.23
2022-12-28T09:24:22.494Z,100952.39
2022-12-28T09:26:52.288Z,100955.97
2022-12-28T09:29:21.307Z,100956.99
2022-12-28T09:31:50.259Z,100955.44
2022-12-28T09:34:36.755Z,100943.49
2022-12-28T09:37:07.925Z,100939.32
2022-12-28T09:39:36.945Z,100935.95
2022-12-28T09:42:14.632Z,100924.89
2022-12-28T09:44:50.003Z,100915.57
2022-12-28T09:47:29.578Z,100911.39
2022-12-28T09:50:11.550Z,100911.59
2022-12-28T09:52:49.856Z,100902.28
2022-12-28T09:55:20.267Z,100900.77
2022-12-28T09:57:51.609Z,100893.22
2022-12-28T10:00:23.005Z,100894.27
2022-12-28T10:02:56.700Z,100882.52
2022-12-28T10:05:27.237Z,100875.13
2022-12-28T10:07:59.046Z,100859.14
2022-12-28T10:10:28.963Z,100859.47
2022-12-28T10:13:04.588Z,100864.92
2022-12-28T10:15:35.815Z,100855.66
2022-12-28T10:18:06.691Z,100852.29
2022-12-28T10:20:35.691Z,100849.69
2022-12-28T10:23:05.344Z,100842.66
2022-12-28T10:25:34.464Z,100852.03
2022-12-28T10:28:07.732Z,100848.43
2022-12-28T10:30:46.102Z,100841.38
2022-12-28T10:33:19.199Z,100828.30
2022-12-28T10:35:54.043Z,100832.56
2022-12-28T10:38:25.943Z,100819.55
2022-12-28T10:41:01.163Z,100825.56
2022-12-28T10:43:33.095Z,100826.36
2022-12-28T10:46:06.441Z,100828.81
2022-12-28T10:48:38.948Z,100832.16
2022-12-28T10:51:14.722Z,100826.05
2022-12-28T10:53:45.517Z,100819.06
2022-12-28T10:56:32.568Z,100813.00
2022-12-28T10:59:20.505Z,100810.27
2022-12-28T11:01:49.844Z,100793.84
2022-12-28T11:04:21.300Z,100780.84
2022-12-28T11:06:55.551Z,100777.40
2022-12-28T11:09:26.395Z,100776.45
2022-12-28T11:11:57.177Z,100777.27
2022-12-28T11:14:31.810Z,100774.67
2022-12-28T11:17:14.215Z,100770.27
2022-12-28T11:19:43.612Z,100755.47
2022-12-28T11:22:15.421Z,100756.20
2022-12-28T11:24:44.482Z,100755.22
2022-12-28T11:27:16.969Z,100744.80
2022-12-28T11:29:48.884Z,100752.49
2022-12-28T11:32:22.507Z,100754.16
2022-12-28T11:34:53.063Z,100759.27
2022-12-28T11:37:21.962Z,100759.27
2022-12-28T11:39:52.244Z,100746.41
2022-12-28T11:42:55.369Z,100740.41
2022-12-28T11:45:54.411Z,100740.41
2022-12-28T11:48:56.320Z,100736.16
2022-12-28T11:51:27.653Z,100728.46
2022-12-28T11:53:59.097Z,100732.80
2022-12-28T11:56:49.081Z,100720.73
2022-12-28T11:59:26.770Z,100715.63
2022-12-28T12:01:57.667Z,100712.98
2022-12-28T12:04:38.368Z,100706.08
2022-12-28T12:07:26.023Z,100695.73
2022-12-28T12:10:29.251Z,100691.45
2022-12-28T12:12:59.137Z,100683.63
2022-12-28T12:15:39.752Z,100676.72
2022-12-28T12:18:18.918Z,100675.88
2022-12-28T12:20:55.533Z,100663.80
2022-12-28T12:23:41.468Z,100657.80
2022-12-28T12:26:31.073Z,100649.16
2022-12-28T12:29:04.820Z,100643.15
2022-12-28T12:31:36.106Z,100636.28
2022-12-28T12:34:19.033Z,100640.61
2022-12-28T12:37:16.705Z,100638.87
2022-12-28T12:40:05.041Z,100635.38
2022-12-28T12:42:42.715Z,100628.41
2022-12-28T12:45:23.762Z,100623.17
2022-12-28T12:48:20.911Z,100624.84
2022-12-28T12:51:24.895Z,100620.44
2022-12-28T12:54:15.837Z,100622.12
2022-12-28T12:56:50.432Z,100611.73
2022-12-28T12:59:44.309Z,100621.20
2022-12-28T13:02:44.189Z,100610.81
2022-12-28T13:05:19.041Z,100608.22
2022-12-28T13:07:48.348Z,100605.62
2022-12-28T13:10:24.609Z,100601.30
2022-12-28T13:12:57.598Z,100591.80
2022-12-28T13:15:27.848Z,100574.52
2022-12-28T13:18:18.272Z,100576.31
2022-12-28T13:20:55.453Z,100576.33
2022-12-28T13:23:25.318Z,100575.56
2022-12-28T13:25:58.045Z,100577.36
2022-12-28T13:28:31.157Z,100565.34
2022-12-28T13:31:07.731Z,100573.05
2022-12-28T13:33:36.854Z,100560.13
2022-12-28T13:36:12.828Z,100565.24
2022-12-28T13:38:41.922Z,100553.16
2022-12-28T13:41:21.162Z,100553.97
2022-12-28T13:44:14.942Z,100543.53
2022-12-28T13:46:49.714Z,100549.52
2022-12-28T13:49:20.303Z,100536.56
2022-12-28T13:51:53.443Z,100548.59
2022-12-28T13:54:25.037Z,100535.63
2022-12-28T13:57:14.726Z,100538.15
2022-12-28T13:59:47.556Z,100530.39
2022-12-28T14:02:20.989Z,100539.83
2022-12-28T14:04:54.187Z,100527.75
2022-12-28T14:07:27.539Z,100526.84
2022-12-28T14:09:57.182Z,100529.41
2022-12-28T14:12:26.915Z,100528.45
2022-12-28T14:14:56.698Z,100524.95
2022-12-28T14:17:26.830Z,100523.19
2022-12-28T14:19:57.311Z,100514.54
2022-12-28T14:22:31.000Z,100515.33
2022-12-28T14:25:02.531Z,100508.41
2022-12-28T14:27:36.210Z,100510.16
2022-12-28T14:30:20.472Z,100511.05
2022-12-28T14:32:49.718Z,100499.84
2022-12-28T14:35:23.327Z,100497.27
2022-12-28T14:37:54.614Z,100499.01
2022-12-28T14:40:29.354Z,100501.64
2022-12-28T14:42:59.032Z,100496.48
2022-12-28T14:46:07.485Z,100499.05
2022-12-28T14:48:39.585Z,100494.75
2022-12-28T14:51:26.145Z,100495.63
2022-12-28T14:54:28.951Z,100489.64
2022-12-28T14:57:04.447Z,100481.91
2022-12-28T14:59:36.758Z,100473.33
2022-12-28T15:02:07.022Z,100472.48
2022-12-28T15:04:38.851Z,100480.23
2022-12-28T15:07:09.482Z,100476.81
2022-12-28T15:09:38.504Z,100482.83
2022-12-28T15:12:15.906Z,100483.72
2022-12-28T15:14:47.597Z,100479.41
2022-12-28T15:17:17.478Z,100473.41
2022-12-28T15:19:46.729Z,100476.03
2022-12-28T15:22:15.694Z,100475.21
2022-12-28T15:24:48.329Z,100473.48
2022-12-28T15:27:17.254Z,100470.95
2022-12-28T15:32:35.315Z,100457.99
2022-12-28T15:35:05.187Z,100455.40
2022-12-28T15:37:34.088Z,100463.98
2022-12-28T15:40:04.075Z,100457.08
2022-12-28T15:42:39.895Z,100460.50
2022-12-28T15:45:11.230Z,100469.97
2022-12-28T15:47:40.273Z,100474.30
2022-12-28T15:50:10.593Z,100466.55
2022-12-28T15:52:39.942Z,100463.14
2022-12-28T15:55:09.904Z,100463.16
2022-12-28T15:57:38.949Z,100458.88
2022-12-28T16:00:10.966Z,100460.63
2022-12-28T16:02:40.177Z,100458.05
2022-12-28T16:05:10.246Z,100458.11
2022-12-28T16:07:39.187Z,100458.13
2022-12-28T16:10:09.604Z,100450.42
2022-12-28T16:12:38.535Z,100456.49
2022-12-28T16:15:09.661Z,100450.48
2022-12-28T16:17:48.610Z,100456.50
2022-12-28T16:20:22.198Z,100447.91
2022-12-28T16:22:53.106Z,100445.33
2022-12-28T16:25:21.993Z,100443.59
2022-12-28T16:27:50.866Z,100438.44
2022-12-28T16:30:19.989Z,100438.44
2022-12-28T16:32:48.898Z,100433.28
2022-12-28T16:35:18.006Z,100447.93
2022-12-28T16:37:47.049Z,100447.09
2022-12-28T16:40:16.271Z,100437.66
2022-12-28T16:42:45.272Z,100434.23
2022-12-28T16:45:14.474Z,100442.83
2022-12-28T16:47:45.004Z,100437.67
2022-12-28T16:50:16.038Z,100437.70
2022-12-28T16:52:44.919Z,100441.19
2022-12-28T16:55:14.031Z,100438.62
2022-12-28T16:57:43.013Z,100435.20
2022-12-28T17:00:13.843Z,100433.52
2022-12-28T17:02:43.067Z,100431.83
2022-12-28T17:05:12.119Z,100421.51
2022-12-28T17:07:41.077Z,100424.09
2022-12-28T17:10:11.144Z,100425.83
2022-12-28T17:12:40.052Z,100420.70
2022-12-28T17:15:10.188Z,100415.55
2022-12-28T17:17:38.964Z,100425.05
2022-12-28T17:20:09.297Z,100420.77
2022-12-28T17:22:38.475Z,100421.62
2022-12-28T17:25:08.198Z,100426.80
2022-12-28T17:27:37.106Z,100417.34
2022-12-28T17:30:07.586Z,100414.77
2022-12-28T17:32:36.499Z,100414.81
2022-12-28T17:35:07.567Z,100417.41
2022-12-28T17:37:36.874Z,100410.60
2022-12-28T17:40:08.091Z,100411.50
2022-12-28T17:42:37.067Z,100404.64
2022-12-28T17:45:11.390Z,100408.97
2022-12-28T17:47:41.044Z,100402.96
2022-12-28T17:50:10.397Z,100396.95
2022-12-28T17:52:41.351Z,100390.93
2022-12-28T17:55:11.028Z,100395.22
2022-12-28T17:57:40.302Z,100390.95
2022-12-28T18:00:12.154Z,100400.44
2022-12-28T18:02:46.449Z,100402.17
2022-12-28T18:05:15.711Z,100396.16
2022-12-28T18:07:44.624Z,100393.57
2022-12-28T18:10:13.466Z,100386.67
2022-12-28T18:12:42.547Z,100388.41
2022-12-28T18:15:11.959Z,100387.56
2022-12-28T18:17:40.810Z,100390.14
2022-12-28T18:20:11.036Z,100392.73
2022-12-28T18:22:39.880Z,100397.91
2022-12-28T18:25:10.053Z,100397.06
2022-12-28T18:27:39.085Z,100389.35
2022-12-28T18:30:10.508Z,100391.94
2022-12-28T18:32:39.435Z,100380.75
2022-12-28T18:35:11.263Z,100385.08
2022-12-28T18:37:40.285Z,100386.82
2022-12-28T18:40:10.812Z,100379.95
2022-12-28T18:42:39.765Z,100373.94
2022-12-28T18:45:10.579Z,100372.20
2022-12-28T18:47:39.564Z,100377.38
2022-12-28T18:50:09.991Z,100370.51
2022-12-28T18:52:41.190Z,100380.00
2022-12-28T18:55:10.783Z,100375.72
2022-12-28T18:57:39.848Z,100373.99
2022-12-28T19:00:11.195Z,100368.86
2022-12-28T19:02:40.234Z,100366.28
2022-12-28T19:05:09.692Z,100364.59
2022-12-28T19:07:39.898Z,100359.45
2022-12-28T19:10:13.124Z,100365.52
2022-12-28T19:12:43.658Z,100368.09
2022-12-28T19:15:13.114Z,100367.25
2022-12-28T19:17:41.990Z,100369.84
2022-12-28T19:20:11.736Z,100362.97
2022-12-28T19:22:40.815Z,100363.83
2022-12-28T19:25:10.393Z,100367.30
2022-12-28T19:27:39.434Z,100369.89
2022-12-28T19:30:10.569Z,100370.77
2022-12-28T19:32:39.687Z,100362.16
2022-12-28T19:35:09.642Z,100353.55
2022-12-28T19:37:38.691Z,100351.82
2022-12-28T19:40:09.828Z,100352.67
2022-12-28T19:42:38.869Z,100355.26
2022-12-28T19:45:10.451Z,100351.82
2022-12-28T19:47:39.483Z,100353.55
2022-12-28T19:50:09.015Z,100343.21
2022-12-28T19:52:38.004Z,100345.80
2022-12-28T19:55:08.230Z,100343.21
2022-12-28T19:57:38.354Z,100343.21
2022-12-28T20:00:10.259Z,100341.48
2022-12-28T20:02:39.317Z,100344.91
2022-12-28T20:05:09.738Z,100339.73
2022-12-28T20:07:39.339Z,100338.00
2022-12-28T20:10:09.339Z,100336.27
2022-12-28T20:12:38.301Z,100333.69
2022-12-28T20:15:09.088Z,100331.09
2022-12-28T20:17:37.983Z,100323.34
2022-12-28T20:20:08.673Z,100325.92
2022-12-28T20:22:40.678Z,100331.09
2022-12-28T20:25:10.388Z,100325.92
2022-12-28T20:27:39.439Z,100329.40
2022-12-28T20:30:10.231Z,100337.16
2022-12-28T20:32:44.547Z,100344.91
2022-12-28T20:35:13.990Z,100341.48
2022-12-28T20:37:43.039Z,100345.80
2022-12-28T20:40:12.876Z,100337.16
2022-12-28T20:42:59.925Z,100348.39
2022-12-28T20:45:32.776Z,100353.55
2022-12-28T20:48:01.645Z,100358.73
2022-12-28T20:50:30.716Z,100353.56
2022-12-28T20:52:59.636Z,100350.09
2022-12-28T20:55:28.617Z,100355.26
2022-12-28T20:57:57.514Z,100349.23
2022-12-28T21:00:26.407Z,100349.23
2022-12-28T21:02:55.451Z,100342.37
2022-12-28T21:05:24.326Z,100339.78
2022-12-28T21:07:53.192Z,100335.50
2022-12-28T21:10:22.118Z,100338.97
2022-12-28T21:12:50.965Z,100331.21
2022-12-28T21:15:20.013Z,100326.92
2022-12-28T21:17:48.875Z,100331.25
2022-12-28T21:20:17.809Z,100332.09
2022-12-28T21:22:46.657Z,100327.81
2022-12-28T21:25:15.828Z,100330.40
2022-12-28T21:27:45.045Z,100317.47
2022-12-28T21:30:14.245Z,100320.94
2022-12-28T21:32:43.116Z,100320.94
2022-12-28T21:35:12.084Z,100315.77
2022-12-28T21:37:41.010Z,100311.44
2022-12-28T21:40:13.537Z,100301.09
2022-12-28T21:42:42.422Z,100299.39
2022-12-28T21:45:12.444Z,100298.51
2022-12-28T21:47:41.409Z,100306.27
2022-12-28T21:50:11.418Z,100313.18
2022-12-28T21:52:40.327Z,100317.50
2022-12-28T21:55:28.379Z,100312.33
2022-12-28T21:57:59.609Z,100311.44
2022-12-28T22:00:46.876Z,100307.16
2022-12-28T22:03:34.395Z,100314.03
2022-12-28T22:06:03.857Z,100302.83
2022-12-28T22:08:51.618Z,100295.06
2022-12-28T22:11:39.003Z,100295.92
2022-12-28T22:14:08.262Z,100300.25
2022-12-28T22:16:37.318Z,100297.66
2022-12-28T22:19:08.444Z,100295.92
2022-12-28T22:21:37.328Z,100300.25
2022-12-28T22:24:06.999Z,100291.63
2022-12-28T22:26:35.887Z,100299.39
2022-12-28T22:29:04.956Z,100310.63
2022-12-28T22:31:34.352Z,100306.30
2022-12-28T22:34:07.057Z,100295.95
2022-12-28T22:36:36.614Z,100303.72
2022-12-28T22:39:05.539Z,100301.13
2022-12-28T22:41:34.911Z,100299.42
2022-12-28T22:44:04.112Z,100292.52
2022-12-28T22:46:33.730Z,100302.02
2022-12-28T22:49:02.644Z,100292.52
2022-12-28T22:51:31.696Z,100291.63
2022-12-28T22:54:00.590Z,100285.61
2022-12-28T22:56:29.541Z,100277.84
2022-12-28T22:59:01.595Z,100281.28
2022-12-28T23:01:34.225Z,100278.70
2022-12-28T23:04:03.288Z,100270.94
2022-12-28T23:06:32.455Z,100262.33
2022-12-28T23:09:01.314Z,100264.91
2022-12-28T23:11:36.474Z,100265.77
2022-12-28T23:14:26.229Z,100264.03
2022-12-28T23:16:55.670Z,100264.03
2022-12-28T23:19:42.657Z,100255.42
2022-12-28T23:22:33.571Z,100259.70
2022-12-28T23:25:20.572Z,100262.30
2022-12-28T23:27:49.775Z,100263.18
2022-12-28T23:30:20.710Z,100265.77
2022-12-28T23:32:50.948Z,100264.91
2022-12-28T23:35:20.808Z,100252.83
2022-12-28T23:37:49.741Z,100264.06
2022-12-28T23:40:21.072Z,100267.53
2022-12-28T23:42:50.536Z,100258.03
2022-12-28T23:45:20.095Z,100254.59
2022-12-28T23:47:51.765Z,100250.27
2022-12-28T23:50:20.936Z,100244.25
2022-12-28T23:52:49.817Z,100240.81
2022-12-28T23:55:18.747Z,100240.81
2022-12-28T23:57:47.551Z,100241.66
